Terminal Aerodrome Forecast
Issued by NWS Burlington, VT

Home | Current Version | Previous Version | Text Only | Print | Product List | Glossary On
Versions: 1 2 3 4 5 6 7 8 9 10 11 12 13 14 15 16
000
FTUS41 KBTV 202300
TAFBTV
TAF
KBTV 202338Z 2100/2124 12006KT P6SM BKN250
     FM210400 16004KT P6SM VCSH SCT025 BKN070
      TEMPO 2104/2108 3SM -SHRA BR BKN025
     FM210800 16004KT P6SM VCSH SCT020 OVC035
     FM211800 17010KT P6SM BKN050=

USA.gov is the U.S. government's official web portal to all federal, state and local government web resources and services.